createdAt,value
2022-09-28T00:00:02.310Z,8.00
2022-09-28T00:02:39.271Z,8.00
2022-09-28T00:05:06.196Z,8.00
2022-09-28T00:07:32.779Z,8.00
2022-09-28T00:09:59.936Z,7.90
2022-09-28T00:12:27.942Z,7.90
2022-09-28T00:14:54.668Z,7.90
2022-09-28T00:17:22.962Z,7.80
2022-09-28T00:19:49.682Z,7.80
2022-09-28T00:22:16.363Z,7.80
2022-09-28T00:24:43.183Z,7.70
2022-09-28T00:27:09.794Z,7.70
2022-09-28T00:29:37.422Z,7.70
2022-09-28T00:32:09.593Z,7.70
2022-09-28T00:34:37.763Z,7.70
2022-09-28T00:37:05.065Z,7.60
2022-09-28T00:39:31.875Z,7.70
2022-09-28T00:41:58.778Z,7.70
2022-09-28T00:44:25.443Z,7.60
2022-09-28T00:47:01.540Z,7.60
2022-09-28T00:49:38.583Z,7.60
2022-09-28T00:52:06.871Z,7.50
2022-09-28T00:54:34.266Z,7.50
2022-09-28T00:57:01.697Z,7.50
2022-09-28T00:59:29.342Z,7.40
2022-09-28T01:01:56.086Z,7.40
2022-09-28T01:04:26.898Z,7.30
2022-09-28T01:06:56.980Z,7.30
2022-09-28T01:09:25.048Z,7.20
2022-09-28T01:11:52.070Z,7.10
2022-09-28T01:14:19.528Z,7.00
2022-09-28T01:16:55.055Z,7.00
2022-09-28T01:19:59.313Z,6.90
2022-09-28T01:22:26.013Z,6.80
2022-09-28T01:25:04.945Z,6.80
2022-09-28T01:27:34.150Z,6.70
2022-09-28T01:30:05.067Z,6.60
2022-09-28T01:32:38.170Z,6.50
2022-09-28T01:35:09.898Z,6.50
2022-09-28T01:37:41.705Z,6.40
2022-09-28T01:40:10.040Z,6.40
2022-09-28T01:42:38.789Z,6.40
2022-09-28T01:45:08.162Z,6.30
2022-09-28T01:47:37.685Z,6.30
2022-09-28T01:50:08.064Z,6.40
2022-09-28T01:52:40.559Z,6.40
2022-09-28T01:55:14.704Z,6.40
2022-09-28T01:57:45.549Z,6.30
2022-09-28T02:00:14.920Z,6.20
2022-09-28T02:02:48.496Z,6.20
2022-09-28T02:05:20.544Z,6.10
2022-09-28T02:07:50.214Z,6.10
2022-09-28T02:10:19.785Z,6.10
2022-09-28T02:12:48.692Z,6.10
2022-09-28T02:15:20.605Z,6.00
2022-09-28T02:17:47.547Z,6.00
2022-09-28T02:20:16.107Z,6.00
2022-09-28T02:22:48.475Z,6.10
2022-09-28T02:25:28.581Z,6.20
2022-09-28T02:28:00.379Z,6.20
2022-09-28T02:30:29.437Z,6.30
2022-09-28T02:32:57.869Z,6.40
2022-09-28T02:35:24.733Z,6.50
2022-09-28T02:37:51.510Z,6.50
2022-09-28T02:40:20.277Z,6.60
2022-09-28T02:42:56.220Z,6.60
2022-09-28T02:45:23.066Z,6.70
2022-09-28T02:48:02.969Z,6.70
2022-09-28T02:50:30.411Z,6.80
2022-09-28T02:53:07.423Z,6.80
2022-09-28T02:55:42.903Z,6.80
2022-09-28T02:58:15.532Z,6.80
2022-09-28T03:00:51.434Z,6.90
2022-09-28T03:03:21.087Z,6.80
2022-09-28T03:06:00.349Z,6.80
2022-09-28T03:08:36.302Z,6.80
2022-09-28T03:11:09.301Z,6.80
2022-09-28T03:13:37.531Z,6.80
2022-09-28T03:16:08.629Z,6.80
2022-09-28T03:18:35.523Z,6.80
2022-09-28T03:21:03.783Z,6.70
2022-09-28T03:23:30.599Z,6.70
2022-09-28T03:25:57.492Z,6.70
2022-09-28T03:28:24.257Z,6.80
2022-09-28T03:30:50.897Z,6.80
2022-09-28T03:33:18.376Z,6.80
2022-09-28T03:35:48.859Z,6.80
2022-09-28T03:38:16.969Z,6.90
2022-09-28T03:40:44.220Z,6.90
2022-09-28T03:43:11.068Z,7.00
2022-09-28T03:45:38.027Z,7.00
2022-09-28T03:48:04.716Z,7.00
2022-09-28T03:50:33.777Z,7.00
2022-09-28T03:53:04.273Z,7.00
2022-09-28T03:55:31.094Z,7.00
2022-09-28T03:57:57.753Z,7.10
2022-09-28T04:00:24.462Z,7.10
2022-09-28T04:02:51.481Z,7.10
2022-09-28T04:05:18.172Z,7.10
2022-09-28T04:07:44.773Z,7.10
2022-09-28T04:10:11.520Z,7.10
2022-09-28T04:12:38.364Z,7.20
2022-09-28T04:15:05.850Z,7.20
2022-09-28T04:17:34.625Z,7.20
2022-09-28T04:20:07.072Z,7.20
2022-09-28T04:22:39.794Z,7.20
2022-09-28T04:25:06.592Z,7.30
2022-09-28T04:27:52.262Z,7.30
2022-09-28T04:30:19.225Z,7.30
2022-09-28T04:32:46.633Z,7.30
2022-09-28T04:35:13.505Z,7.30
2022-09-28T04:37:40.312Z,7.40
2022-09-28T04:40:07.307Z,7.40
2022-09-28T04:42:34.072Z,7.40
2022-09-28T04:45:02.171Z,7.50
2022-09-28T04:47:29.724Z,7.50
2022-09-28T04:50:22.691Z,7.50
2022-09-28T04:53:17.384Z,7.50
2022-09-28T04:55:45.103Z,7.60
2022-09-28T04:58:11.924Z,7.60
2022-09-28T05:00:39.050Z,7.60
2022-09-28T05:03:14.299Z,7.60
2022-09-28T05:06:15.278Z,7.60
2022-09-28T05:08:46.790Z,7.60
2022-09-28T05:11:14.082Z,7.60
2022-09-28T05:13:41.837Z,7.50
2022-09-28T05:16:09.399Z,7.50
2022-09-28T05:18:54.565Z,7.50
2022-09-28T05:21:21.288Z,7.50
2022-09-28T05:23:47.960Z,7.40
2022-09-28T05:26:15.028Z,7.40
2022-09-28T05:28:41.828Z,7.40
2022-09-28T05:31:29.760Z,7.40
2022-09-28T05:34:05.623Z,7.40
2022-09-28T05:36:32.640Z,7.40
2022-09-28T05:38:59.362Z,7.40
2022-09-28T05:41:26.142Z,7.40
2022-09-28T05:43:54.995Z,7.50
2022-09-28T05:46:23.728Z,7.50
2022-09-28T05:48:52.604Z,7.50
2022-09-28T05:51:19.356Z,7.60
2022-09-28T05:53:46.258Z,7.60
2022-09-28T05:56:13.632Z,7.60
2022-09-28T05:58:43.889Z,7.60
2022-09-28T06:01:11.746Z,7.70
2022-09-28T06:03:38.550Z,7.70
2022-09-28T06:06:05.242Z,7.70
2022-09-28T06:08:32.838Z,7.70
2022-09-28T06:11:18.699Z,7.80
2022-09-28T06:13:46.973Z,7.80
2022-09-28T06:16:16.958Z,7.80
2022-09-28T06:18:43.818Z,7.80
2022-09-28T06:21:42.636Z,7.80
2022-09-28T06:24:09.581Z,7.70
2022-09-28T06:26:37.072Z,7.80
2022-09-28T06:29:04.895Z,7.70
2022-09-28T06:31:31.782Z,7.80
2022-09-28T06:34:02.078Z,7.70
2022-09-28T06:36:29.337Z,7.80
2022-09-28T06:38:56.304Z,7.70
2022-09-28T06:41:24.579Z,7.70
2022-09-28T06:43:52.205Z,7.70
2022-09-28T06:46:44.841Z,7.70
2022-09-28T06:49:43.005Z,7.70
2022-09-28T06:52:10.130Z,7.60
2022-09-28T06:55:01.664Z,7.70
2022-09-28T06:57:44.730Z,7.70
2022-09-28T07:00:11.934Z,7.70
2022-09-28T07:02:38.650Z,7.70
2022-09-28T07:05:45.185Z,7.70
2022-09-28T07:08:30.458Z,7.70
2022-09-28T07:11:21.212Z,7.70
2022-09-28T07:14:17.177Z,7.70
2022-09-28T07:17:11.449Z,7.70
2022-09-28T07:19:36.458Z,7.70
2022-09-28T07:22:05.431Z,7.70
2022-09-28T07:24:32.920Z,7.70
2022-09-28T07:27:18.103Z,7.80
2022-09-28T07:30:05.105Z,7.80
2022-09-28T07:32:45.753Z,7.80
2022-09-28T07:35:22.308Z,7.90
2022-09-28T07:38:17.507Z,7.80
2022-09-28T07:41:03.096Z,7.80
2022-09-28T07:43:30.162Z,7.90
2022-09-28T07:45:57.044Z,8.00
2022-09-28T07:48:23.880Z,8.00
2022-09-28T07:51:04.074Z,8.00
2022-09-28T07:53:34.270Z,8.10
2022-09-28T07:56:33.941Z,8.10
2022-09-28T07:59:11.920Z,8.20
2022-09-28T08:01:38.600Z,8.20
2022-09-28T08:04:06.223Z,8.30
2022-09-28T08:06:34.772Z,8.40
2022-09-28T08:09:02.995Z,8.40
2022-09-28T08:11:49.946Z,8.50
2022-09-28T08:14:34.291Z,8.60
2022-09-28T08:17:23.319Z,8.60
2022-09-28T08:20:13.208Z,8.70
2022-09-28T08:22:41.174Z,8.80
2022-09-28T08:25:08.824Z,8.90
2022-09-28T08:27:36.577Z,8.90
2022-09-28T08:30:04.412Z,9.00
2022-09-28T08:32:38.995Z,9.20
2022-09-28T08:35:25.673Z,9.40
2022-09-28T08:38:09.033Z,9.60
2022-09-28T08:41:04.687Z,9.80
2022-09-28T08:43:55.810Z,10.00
2022-09-28T08:46:38.701Z,10.20
2022-09-28T08:49:43.093Z,10.20
2022-09-28T08:52:33.287Z,10.10
2022-09-28T08:55:18.998Z,10.00
2022-09-28T08:57:50.032Z,9.90
2022-09-28T09:00:23.619Z,9.80
2022-09-28T09:02:51.269Z,9.80
2022-09-28T09:05:20.701Z,9.70
2022-09-28T09:08:14.158Z,9.70
2022-09-28T09:10:42.653Z,9.50
2022-09-28T09:13:35.685Z,9.40
2022-09-28T09:16:03.599Z,9.40
2022-09-28T09:19:10.502Z,9.40
2022-09-28T09:22:00.402Z,9.50
2022-09-28T09:24:31.738Z,9.40
2022-09-28T09:27:05.508Z,9.60
2022-09-28T09:29:40.151Z,9.60
2022-09-28T09:32:06.986Z,9.70
2022-09-28T09:34:43.248Z,9.90
2022-09-28T09:37:37.593Z,10.10
2022-09-28T09:40:23.192Z,10.20
2022-09-28T09:43:12.987Z,10.30
2022-09-28T09:46:02.037Z,10.40
2022-09-28T09:48:55.674Z,10.50
2022-09-28T09:51:23.164Z,10.70
2022-09-28T09:54:00.021Z,10.80
2022-09-28T09:56:31.130Z,10.80
2022-09-28T09:59:15.016Z,10.80
2022-09-28T10:02:02.562Z,11.00
2022-09-28T10:04:46.750Z,11.10
2022-09-28T10:07:28.833Z,11.10
2022-09-28T10:09:57.345Z,11.00
2022-09-28T10:12:53.729Z,11.10
2022-09-28T10:15:28.415Z,11.30
2022-09-28T10:18:12.009Z,11.50
2022-09-28T10:20:57.712Z,11.90
2022-09-28T10:23:50.111Z,12.60
2022-09-28T10:26:25.106Z,13.40
2022-09-28T10:28:58.868Z,13.90
2022-09-28T10:31:36.417Z,14.10
2022-09-28T10:34:06.118Z,13.80
2022-09-28T10:36:38.566Z,13.40
2022-09-28T10:39:06.305Z,13.30
2022-09-28T10:41:33.080Z,13.30
2022-09-28T10:44:06.678Z,13.20
2022-09-28T10:46:40.603Z,13.10
2022-09-28T10:49:16.594Z,13.00
2022-09-28T10:51:50.177Z,12.80
2022-09-28T10:54:24.549Z,12.70
2022-09-28T10:56:53.022Z,12.40
2022-09-28T10:59:39.753Z,12.30
2022-09-28T11:02:34.739Z,12.10
2022-09-28T11:05:19.720Z,12.00
2022-09-28T11:07:47.905Z,11.80
2022-09-28T11:10:20.857Z,11.70
2022-09-28T11:12:49.566Z,11.50
2022-09-28T11:15:19.611Z,11.40
2022-09-28T11:17:48.391Z,11.10
2022-09-28T11:20:27.459Z,10.90
2022-09-28T11:22:58.254Z,10.80
2022-09-28T11:25:30.231Z,10.80
2022-09-28T11:27:59.039Z,10.90
2022-09-28T11:30:40.657Z,11.00
2022-09-28T11:33:27.307Z,11.00
2022-09-28T11:36:16.623Z,10.80
2022-09-28T11:38:47.484Z,10.70
2022-09-28T11:41:49.074Z,10.80
2022-09-28T11:44:44.851Z,11.10
2022-09-28T11:47:33.388Z,11.30
2022-09-28T11:50:02.932Z,11.30
2022-09-28T11:52:36.935Z,11.20
2022-09-28T11:55:17.251Z,11.20
2022-09-28T11:57:46.562Z,11.40
2022-09-28T12:00:14.997Z,11.80
2022-09-28T12:03:03.936Z,12.10
2022-09-28T12:05:33.651Z,12.10
2022-09-28T12:08:08.366Z,12.20
2022-09-28T12:10:57.138Z,12.30
2022-09-28T12:13:47.720Z,12.50
2022-09-28T12:16:45.174Z,12.60
2022-09-28T12:19:24.800Z,12.90
2022-09-28T12:21:55.001Z,12.80
2022-09-28T12:24:23.736Z,12.90
2022-09-28T12:27:00.352Z,13.00
2022-09-28T12:29:35.017Z,12.90
2022-09-28T12:32:21.974Z,13.10
2022-09-28T12:34:48.738Z,13.30
2022-09-28T12:37:21.764Z,13.20
2022-09-28T12:39:57.993Z,12.90
2022-09-28T12:42:44.342Z,12.50
2022-09-28T12:45:11.012Z,12.30
2022-09-28T12:47:49.547Z,12.10
2022-09-28T12:50:51.288Z,12.00
2022-09-28T12:53:26.450Z,12.00
2022-09-28T12:55:58.728Z,12.10
2022-09-28T12:58:43.879Z,12.50
2022-09-28T13:01:28.048Z,13.00
2022-09-28T13:04:01.808Z,13.20
2022-09-28T13:06:31.538Z,13.10
2022-09-28T13:09:02.851Z,13.10
2022-09-28T13:11:41.201Z,13.00
2022-09-28T13:14:17.157Z,12.90
2022-09-28T13:16:50.805Z,12.70
2022-09-28T13:19:24.137Z,12.70
2022-09-28T13:22:00.120Z,12.70
2022-09-28T13:24:33.346Z,13.00
2022-09-28T13:27:05.900Z,13.70
2022-09-28T13:29:34.970Z,13.90
2022-09-28T13:32:03.284Z,13.90
2022-09-28T13:34:33.684Z,13.80
2022-09-28T13:37:09.970Z,13.60
2022-09-28T13:39:38.060Z,13.40
2022-09-28T13:42:05.804Z,13.10
2022-09-28T13:44:54.326Z,12.80
2022-09-28T13:47:21.258Z,12.50
2022-09-28T13:49:55.406Z,12.30
2022-09-28T13:52:30.509Z,12.20
2022-09-28T13:55:12.969Z,12.30
2022-09-28T13:57:55.079Z,12.50
2022-09-28T14:00:40.679Z,12.50
2022-09-28T14:03:19.564Z,12.90
2022-09-28T14:05:47.021Z,13.90
2022-09-28T14:08:17.274Z,14.80
2022-09-28T14:10:44.000Z,15.40
2022-09-28T14:13:10.624Z,15.20
2022-09-28T14:15:37.342Z,14.70
2022-09-28T14:18:25.638Z,14.20
2022-09-28T14:20:58.265Z,13.80
2022-09-28T14:23:43.865Z,13.30
2022-09-28T14:26:41.615Z,12.90
2022-09-28T14:29:37.817Z,12.70
2022-09-28T14:32:04.462Z,13.10
2022-09-28T14:34:39.252Z,14.00
2022-09-28T14:37:37.034Z,14.70
2022-09-28T14:40:35.690Z,14.90
2022-09-28T14:43:24.760Z,14.60
2022-09-28T14:46:11.740Z,14.40
2022-09-28T14:48:44.687Z,15.00
2022-09-28T14:51:26.644Z,15.60
2022-09-28T14:53:54.678Z,16.10
2022-09-28T14:56:21.666Z,16.50
2022-09-28T14:58:53.341Z,16.80
2022-09-28T15:01:20.698Z,17.10
2022-09-28T15:03:49.382Z,17.40
2022-09-28T15:06:16.251Z,17.60
2022-09-28T15:08:42.996Z,17.20
2022-09-28T15:11:11.882Z,16.50
2022-09-28T15:13:40.760Z,15.90
2022-09-28T15:16:11.664Z,15.50
2022-09-28T15:18:44.971Z,14.90
2022-09-28T15:21:13.642Z,14.20
2022-09-28T15:23:41.948Z,13.50
2022-09-28T15:26:23.249Z,12.90
2022-09-28T15:28:50.051Z,12.40
2022-09-28T15:31:18.316Z,12.00
2022-09-28T15:34:03.965Z,11.70
2022-09-28T15:36:33.097Z,11.50
2022-09-28T15:39:04.940Z,11.30
2022-09-28T15:41:31.913Z,11.20
2022-09-28T15:44:08.467Z,11.10
2022-09-28T15:46:37.477Z,11.00
2022-09-28T15:49:04.794Z,10.90
2022-09-28T15:51:32.705Z,10.90
2022-09-28T15:54:02.857Z,10.80
2022-09-28T15:56:30.201Z,10.80
2022-09-28T15:59:17.050Z,10.70
2022-09-28T16:01:44.294Z,10.70
2022-09-28T16:04:29.800Z,10.60
2022-09-28T16:07:05.449Z,10.60
2022-09-28T16:09:34.630Z,10.80
2022-09-28T16:12:09.532Z,11.10
2022-09-28T16:14:36.156Z,11.30
2022-09-28T16:17:03.915Z,11.30
2022-09-28T16:19:35.738Z,11.20
2022-09-28T16:22:03.887Z,11.10
2022-09-28T16:24:34.543Z,11.00
2022-09-28T16:27:03.020Z,11.00
2022-09-28T16:29:40.486Z,10.90
2022-09-28T16:32:25.269Z,10.80
2022-09-28T16:35:13.468Z,10.70
2022-09-28T16:37:42.578Z,10.70
2022-09-28T16:40:09.672Z,10.60
2022-09-28T16:42:36.784Z,10.50
2022-09-28T16:45:05.072Z,10.40
2022-09-28T16:47:34.811Z,10.30
2022-09-28T16:50:03.905Z,10.20
2022-09-28T16:52:49.298Z,10.10
2022-09-28T16:55:38.774Z,10.00
2022-09-28T16:58:04.717Z,9.70
2022-09-28T17:00:32.547Z,9.60
2022-09-28T17:02:59.313Z,9.40
2022-09-28T17:05:26.143Z,9.30
2022-09-28T17:08:02.855Z,9.10
2022-09-28T17:10:55.760Z,9.00
2022-09-28T17:13:23.731Z,8.90
2022-09-28T17:15:50.538Z,8.80
2022-09-28T17:18:18.539Z,8.70
2022-09-28T17:20:48.374Z,8.70
2022-09-28T17:23:15.727Z,8.60
2022-09-28T17:25:42.557Z,8.50
2022-09-28T17:28:23.303Z,8.40
2022-09-28T17:30:50.001Z,8.30
2022-09-28T17:33:16.796Z,8.30
2022-09-28T17:35:44.248Z,8.20
2022-09-28T17:38:15.325Z,8.00
2022-09-28T17:40:43.226Z,8.00
2022-09-28T17:43:09.966Z,7.90
2022-09-28T17:45:40.969Z,7.80
2022-09-28T17:48:13.209Z,7.80
2022-09-28T17:50:44.386Z,7.80
2022-09-28T17:53:12.865Z,7.80
2022-09-28T17:55:39.751Z,7.80
2022-09-28T17:58:15.796Z,7.70
2022-09-28T18:00:42.920Z,7.70
2022-09-28T18:03:20.079Z,7.70
2022-09-28T18:05:48.928Z,7.70
2022-09-28T18:08:17.226Z,7.70
2022-09-28T18:10:43.952Z,7.60
2022-09-28T18:13:10.884Z,7.60
2022-09-28T18:15:37.639Z,7.60
2022-09-28T18:18:04.473Z,7.60
2022-09-28T18:20:31.470Z,7.50
2022-09-28T18:22:58.156Z,7.50
2022-09-28T18:25:24.978Z,7.50
2022-09-28T18:27:54.490Z,7.40
2022-09-28T18:30:21.308Z,7.40
2022-09-28T18:32:47.945Z,7.40
2022-09-28T18:35:14.748Z,7.40
2022-09-28T18:37:42.575Z,7.30
2022-09-28T18:40:10.116Z,7.30
2022-09-28T18:42:37.140Z,7.20
2022-09-28T18:45:05.733Z,7.10
2022-09-28T18:47:33.107Z,7.10
2022-09-28T18:49:59.807Z,7.10
2022-09-28T18:52:29.401Z,7.00
2022-09-28T18:54:56.092Z,7.00
2022-09-28T18:57:22.741Z,7.00
2022-09-28T18:59:49.646Z,7.00
2022-09-28T19:02:16.499Z,7.00
2022-09-28T19:04:43.335Z,7.00
2022-09-28T19:07:10.090Z,6.90
2022-09-28T19:09:36.895Z,6.90
2022-09-28T19:12:03.645Z,6.80
2022-09-28T19:14:30.589Z,6.70
2022-09-28T19:16:57.406Z,6.70
2022-09-28T19:19:24.252Z,6.70
2022-09-28T19:21:50.967Z,6.60
2022-09-28T19:24:18.448Z,6.60
2022-09-28T19:26:46.510Z,6.50
2022-09-28T19:29:13.954Z,6.70
2022-09-28T19:31:41.817Z,6.60
2022-09-28T19:34:11.792Z,6.70
2022-09-28T19:36:41.224Z,6.70
2022-09-28T19:39:07.959Z,6.80
2022-09-28T19:41:43.773Z,6.80
2022-09-28T19:44:11.184Z,6.80
2022-09-28T19:46:39.028Z,6.80
2022-09-28T19:49:07.465Z,6.70
2022-09-28T19:51:34.179Z,6.70
2022-09-28T19:54:01.334Z,6.70
2022-09-28T19:56:32.806Z,6.70
2022-09-28T19:59:00.568Z,6.70
2022-09-28T20:01:28.264Z,6.70
2022-09-28T20:03:56.016Z,6.70
2022-09-28T20:06:23.160Z,6.70
2022-09-28T20:08:50.358Z,6.70
2022-09-28T20:11:17.517Z,6.60
2022-09-28T20:13:44.545Z,6.70
2022-09-28T20:16:16.369Z,6.70
2022-09-28T20:18:44.435Z,6.70
2022-09-28T20:21:17.994Z,6.70
2022-09-28T20:23:47.954Z,6.70
2022-09-28T20:26:15.280Z,6.60
2022-09-28T20:28:42.914Z,6.60
2022-09-28T20:31:12.368Z,6.50
2022-09-28T20:33:39.387Z,6.50
2022-09-28T20:36:07.147Z,6.50
2022-09-28T20:38:34.913Z,6.50
2022-09-28T20:41:02.817Z,6.40
2022-09-28T20:43:34.444Z,6.40
2022-09-28T20:46:02.444Z,6.30
2022-09-28T20:48:29.979Z,6.30
2022-09-28T20:50:57.569Z,6.20
2022-09-28T20:53:24.706Z,6.20
2022-09-28T20:55:59.045Z,6.20
2022-09-28T20:58:26.378Z,6.20
2022-09-28T21:00:53.290Z,6.20
2022-09-28T21:03:20.160Z,6.20
2022-09-28T21:05:47.219Z,6.30
2022-09-28T21:08:14.350Z,6.40
2022-09-28T21:10:43.384Z,6.40
2022-09-28T21:13:11.213Z,6.50
2022-09-28T21:15:37.998Z,6.50
2022-09-28T21:18:04.792Z,6.50
2022-09-28T21:20:31.453Z,6.50
2022-09-28T21:22:58.180Z,6.60
2022-09-28T21:25:24.903Z,6.60
2022-09-28T21:27:51.989Z,6.60
2022-09-28T21:30:20.053Z,6.60
2022-09-28T21:32:46.834Z,6.60
2022-09-28T21:35:13.816Z,6.60
2022-09-28T21:37:40.567Z,6.60
2022-09-28T21:40:09.803Z,6.60
2022-09-28T21:42:36.681Z,6.60
2022-09-28T21:45:03.900Z,6.50
2022-09-28T21:47:30.694Z,6.50
2022-09-28T21:49:57.369Z,6.50
2022-09-28T21:52:24.108Z,6.40
2022-09-28T21:54:50.820Z,6.40
2022-09-28T21:57:18.941Z,6.30
2022-09-28T21:59:45.719Z,6.30
2022-09-28T22:02:12.451Z,6.30
2022-09-28T22:04:39.159Z,6.20
2022-09-28T22:07:05.865Z,6.20
2022-09-28T22:09:32.615Z,6.20
2022-09-28T22:11:59.482Z,6.10
2022-09-28T22:14:27.132Z,6.10
2022-09-28T22:16:54.043Z,6.10
2022-09-28T22:19:20.685Z,6.10
2022-09-28T22:21:47.846Z,6.00
2022-09-28T22:24:14.802Z,6.00
2022-09-28T22:26:41.545Z,6.00
2022-09-28T22:29:08.930Z,6.00
2022-09-28T22:31:36.882Z,6.00
2022-09-28T22:34:04.065Z,6.00
2022-09-28T22:36:31.041Z,6.00
2022-09-28T22:38:58.054Z,6.00
2022-09-28T22:41:25.044Z,6.00
2022-09-28T22:43:52.535Z,5.90
2022-09-28T22:46:20.685Z,5.90
2022-09-28T22:48:48.639Z,5.80
2022-09-28T22:51:15.770Z,5.80
2022-09-28T22:53:42.659Z,5.70
2022-09-28T22:56:14.649Z,5.70
2022-09-28T22:58:44.426Z,5.70
2022-09-28T23:01:11.101Z,5.60
2022-09-28T23:03:40.134Z,5.60
2022-09-28T23:06:07.140Z,5.60
2022-09-28T23:08:34.483Z,5.50
2022-09-28T23:11:01.371Z,5.50
2022-09-28T23:13:28.831Z,5.50
2022-09-28T23:16:00.016Z,5.50
2022-09-28T23:18:31.763Z,5.50
2022-09-28T23:20:59.668Z,5.60
2022-09-28T23:23:26.711Z,5.60
2022-09-28T23:25:53.819Z,5.60
2022-09-28T23:28:20.925Z,5.70
2022-09-28T23:30:47.980Z,5.60
2022-09-28T23:33:15.463Z,5.60
2022-09-28T23:35:42.356Z,5.60
2022-09-28T23:38:13.667Z,5.60
2022-09-28T23:40:41.166Z,5.50
2022-09-28T23:43:08.064Z,5.50
2022-09-28T23:45:34.853Z,5.60
2022-09-28T23:48:01.735Z,5.50
2022-09-28T23:50:28.641Z,5.50
2022-09-28T23:52:55.588Z,5.50
2022-09-28T23:55:22.820Z,5.50
2022-09-28T23:57:49.555Z,5.50
